sensor_id;sensor_type;location;lat;lon;timestamp;temperature;humidity
26049;DHT22;13822;51.568;5.086;2022-07-06T04:33:55;13.70;99.90
26049;DHT22;13822;51.568;5.086;2022-07-06T04:38:57;13.80;99.90
26049;DHT22;13822;51.568;5.086;2022-07-06T04:43:59;13.70;99.90
26049;DHT22;13822;51.568;5.086;2022-07-06T04:49:01;13.70;99.90
26049;DHT22;13822;51.568;5.086;2022-07-06T04:54:03;13.70;99.90
26049;DHT22;13822;51.568;5.086;2022-07-06T04:59:07;13.80;99.90
26049;DHT22;13822;51.568;5.086;2022-07-06T05:04:08;13.80;99.90
26049;DHT22;13822;51.568;5.086;2022-07-06T05:09:11;13.90;99.90
26049;DHT22;13822;51.568;5.086;2022-07-06T05:14:13;14.00;99.90
26049;DHT22;13822;51.568;5.086;2022-07-06T05:19:15;14.10;99.90
26049;DHT22;13822;51.568;5.086;2022-07-06T05:24:18;14.20;99.90
26049;DHT22;13822;51.568;5.086;2022-07-06T05:29:20;14.30;99.90
26049;DHT22;13822;51.568;5.086;2022-07-06T05:34:22;14.40;99.90
26049;DHT22;13822;51.568;5.086;2022-07-06T05:39:24;14.50;99.90
26049;DHT22;13822;51.568;5.086;2022-07-06T05:44:26;14.60;99.90
26049;DHT22;13822;51.568;5.086;2022-07-06T05:49:28;14.80;99.90
26049;DHT22;13822;51.568;5.086;2022-07-06T05:54:48;14.90;99.90
26049;DHT22;13822;51.568;5.086;2022-07-06T05:59:50;15.00;99.90
26049;DHT22;13822;51.568;5.086;2022-07-06T06:04:52;15.20;99.90
26049;DHT22;13822;51.568;5.086;2022-07-06T06:09:54;15.30;99.90
26049;DHT22;13822;51.568;5.086;2022-07-06T06:14:56;15.40;99.90
26049;DHT22;13822;51.568;5.086;2022-07-06T06:19:58;15.50;99.90
26049;DHT22;13822;51.568;5.086;2022-07-06T06:25:01;15.60;99.90
26049;DHT22;13822;51.568;5.086;2022-07-06T06:30:03;15.70;99.90
26049;DHT22;13822;51.568;5.086;2022-07-06T06:35:05;15.80;99.90
26049;DHT22;13822;51.568;5.086;2022-07-06T06:40:08;15.90;99.90
26049;DHT22;13822;51.568;5.086;2022-07-06T06:45:10;16.00;99.90
26049;DHT22;13822;51.568;5.086;2022-07-06T06:50:12;16.10;99.90
26049;DHT22;13822;51.568;5.086;2022-07-06T06:55:14;16.20;99.90
26049;DHT22;13822;51.568;5.086;2022-07-06T07:00:16;16.30;99.90
26049;DHT22;13822;51.568;5.086;2022-07-06T07:05:18;16.30;99.90
26049;DHT22;13822;51.568;5.086;2022-07-06T07:10:19;16.40;99.90
26049;DHT22;13822;51.568;5.086;2022-07-06T07:15:25;16.60;99.90
26049;DHT22;13822;51.568;5.086;2022-07-06T07:20:27;16.70;99.90
26049;DHT22;13822;51.568;5.086;2022-07-06T07:25:31;16.90;99.90
26049;DHT22;13822;51.568;5.086;2022-07-06T07:30:33;17.10;99.90
26049;DHT22;13822;51.568;5.086;2022-07-06T07:35:35;17.20;99.90
26049;DHT22;13822;51.568;5.086;2022-07-06T07:40:37;17.30;99.90
26049;DHT22;13822;51.568;5.086;2022-07-06T07:45:39;17.40;99.90
26049;DHT22;13822;51.568;5.086;2022-07-06T07:50:41;17.50;99.90
26049;DHT22;13822;51.568;5.086;2022-07-06T07:55:44;17.60;99.90
26049;DHT22;13822;51.568;5.086;2022-07-06T08:00:46;17.70;99.90
26049;DHT22;13822;51.568;5.086;2022-07-06T08:05:47;17.70;99.90
26049;DHT22;13822;51.568;5.086;2022-07-06T08:10:50;17.90;99.90
26049;DHT22;13822;51.568;5.086;2022-07-06T08:16:12;17.90;99.90
26049;DHT22;13822;51.568;5.086;2022-07-06T08:21:14;17.90;99.90
26049;DHT22;13822;51.568;5.086;2022-07-06T08:26:31;17.90;99.90
26049;DHT22;13822;51.568;5.086;2022-07-06T08:31:33;18.00;99.90
26049;DHT22;13822;51.568;5.086;2022-07-06T08:36:56;18.20;99.90
26049;DHT22;13822;51.568;5.086;2022-07-06T08:41:57;18.30;99.90
26049;DHT22;13822;51.568;5.086;2022-07-06T08:47:00;18.40;99.90
26049;DHT22;13822;51.568;5.086;2022-07-06T08:52:06;18.50;99.90
26049;DHT22;13822;51.568;5.086;2022-07-06T08:57:09;18.70;99.90
26049;DHT22;13822;51.568;5.086;2022-07-06T09:02:11;18.80;99.90
26049;DHT22;13822;51.568;5.086;2022-07-06T09:07:14;18.90;99.90
26049;DHT22;13822;51.568;5.086;2022-07-06T09:12:37;18.90;96.20
26049;DHT22;13822;51.568;5.086;2022-07-06T09:17:39;19.10;92.00
26049;DHT22;13822;51.568;5.086;2022-07-06T09:22:42;19.20;96.90
26049;DHT22;13822;51.568;5.086;2022-07-06T09:27:45;19.30;96.50
26049;DHT22;13822;51.568;5.086;2022-07-06T09:32:56;19.50;99.90
26049;DHT22;13822;51.568;5.086;2022-07-06T09:38:08;19.60;99.60
26049;DHT22;13822;51.568;5.086;2022-07-06T09:48:25;19.80;88.90
26049;DHT22;13822;51.568;5.086;2022-07-06T09:53:29;19.90;82.60
26049;DHT22;13822;51.568;5.086;2022-07-06T09:58:31;19.90;67.90
26049;DHT22;13822;51.568;5.086;2022-07-06T10:03:53;19.90;76.40
26049;DHT22;13822;51.568;5.086;2022-07-06T10:08:55;20.00;72.40
26049;DHT22;13822;51.568;5.086;2022-07-06T10:13:59;20.00;66.50
26049;DHT22;13822;51.568;5.086;2022-07-06T10:19:06;20.00;68.30
26049;DHT22;13822;51.568;5.086;2022-07-06T10:24:10;20.20;78.10
26049;DHT22;13822;51.568;5.086;2022-07-06T10:29:13;20.30;58.70
26049;DHT22;13822;51.568;5.086;2022-07-06T10:34:17;20.40;56.80
26049;DHT22;13822;51.568;5.086;2022-07-06T10:39:33;20.40;57.90
26049;DHT22;13822;51.568;5.086;2022-07-06T10:44:55;20.40;58.10
26049;DHT22;13822;51.568;5.086;2022-07-06T10:50:00;20.40;55.20
26049;DHT22;13822;51.568;5.086;2022-07-06T10:55:02;20.50;56.70
26049;DHT22;13822;51.568;5.086;2022-07-06T11:00:04;20.70;58.20
26049;DHT22;13822;51.568;5.086;2022-07-06T11:05:10;21.00;59.70
26049;DHT22;13822;51.568;5.086;2022-07-06T11:10:13;21.50;57.50
26049;DHT22;13822;51.568;5.086;2022-07-06T11:15:45;22.00;53.60
26049;DHT22;13822;51.568;5.086;2022-07-06T11:26:17;22.90;50.10
26049;DHT22;13822;51.568;5.086;2022-07-06T11:31:19;23.30;43.30
26049;DHT22;13822;51.568;5.086;2022-07-06T11:36:21;23.60;39.70
26049;DHT22;13822;51.568;5.086;2022-07-06T11:41:23;23.60;39.70
26049;DHT22;13822;51.568;5.086;2022-07-06T11:51:29;23.80;41.80
26049;DHT22;13822;51.568;5.086;2022-07-06T11:56:33;24.20;46.60
26049;DHT22;13822;51.568;5.086;2022-07-06T12:01:35;24.70;43.20
26049;DHT22;13822;51.568;5.086;2022-07-06T12:06:43;25.00;37.40
26049;DHT22;13822;51.568;5.086;2022-07-06T12:11:46;25.30;34.80
26049;DHT22;13822;51.568;5.086;2022-07-06T12:16:48;25.40;34.10
26049;DHT22;13822;51.568;5.086;2022-07-06T12:21:51;25.70;34.40
26049;DHT22;13822;51.568;5.086;2022-07-06T12:26:54;26.00;33.10
26049;DHT22;13822;51.568;5.086;2022-07-06T12:31:56;26.10;30.00
26049;DHT22;13822;51.568;5.086;2022-07-06T12:36:59;26.20;32.90
26049;DHT22;13822;51.568;5.086;2022-07-06T12:42:08;26.30;33.40
26049;DHT22;13822;51.568;5.086;2022-07-06T12:47:19;25.80;35.10
26049;DHT22;13822;51.568;5.086;2022-07-06T12:52:23;26.10;35.50
26049;DHT22;13822;51.568;5.086;2022-07-06T12:57:24;26.40;34.30
26049;DHT22;13822;51.568;5.086;2022-07-06T13:02:34;26.60;33.40
26049;DHT22;13822;51.568;5.086;2022-07-06T13:07:58;26.70;37.00
26049;DHT22;13822;51.568;5.086;2022-07-06T13:13:01;26.70;29.70
26049;DHT22;13822;51.568;5.086;2022-07-06T13:18:03;26.40;32.30
26049;DHT22;13822;51.568;5.086;2022-07-06T13:23:13;26.40;33.40
26049;DHT22;13822;51.568;5.086;2022-07-06T13:28:15;26.30;33.40
26049;DHT22;13822;51.568;5.086;2022-07-06T13:33:17;26.10;32.40
26049;DHT22;13822;51.568;5.086;2022-07-06T13:38:19;25.80;31.60
26049;DHT22;13822;51.568;5.086;2022-07-06T13:43:21;25.70;32.20
26049;DHT22;13822;51.568;5.086;2022-07-06T13:48:24;25.80;37.80
26049;DHT22;13822;51.568;5.086;2022-07-06T13:53:26;25.90;33.00
26049;DHT22;13822;51.568;5.086;2022-07-06T13:58:29;25.80;31.90
26049;DHT22;13822;51.568;5.086;2022-07-06T14:03:31;25.50;35.70
26049;DHT22;13822;51.568;5.086;2022-07-06T14:08:33;25.20;33.70
26049;DHT22;13822;51.568;5.086;2022-07-06T14:13:36;25.10;36.60
26049;DHT22;13822;51.568;5.086;2022-07-06T14:18:38;25.00;36.80
26049;DHT22;13822;51.568;5.086;2022-07-06T14:23:40;24.90;37.30
26049;DHT22;13822;51.568;5.086;2022-07-06T14:28:42;24.90;38.50
26049;DHT22;13822;51.568;5.086;2022-07-06T14:33:44;25.20;38.70
26049;DHT22;13822;51.568;5.086;2022-07-06T14:38:48;25.30;36.60
26049;DHT22;13822;51.568;5.086;2022-07-06T14:43:50;25.20;36.00
26049;DHT22;13822;51.568;5.086;2022-07-06T14:48:52;25.10;37.80
26049;DHT22;13822;51.568;5.086;2022-07-06T14:53:54;24.90;37.20
26049;DHT22;13822;51.568;5.086;2022-07-06T14:58:56;24.70;37.50
26049;DHT22;13822;51.568;5.086;2022-07-06T15:04:18;24.50;38.50
26049;DHT22;13822;51.568;5.086;2022-07-06T15:09:20;24.40;40.20
26049;DHT22;13822;51.568;5.086;2022-07-06T15:14:24;24.30;39.90
26049;DHT22;13822;51.568;5.086;2022-07-06T15:19:26;24.20;42.10
26049;DHT22;13822;51.568;5.086;2022-07-06T15:24:28;24.00;43.40
26049;DHT22;13822;51.568;5.086;2022-07-06T15:29:31;23.80;45.40
26049;DHT22;13822;51.568;5.086;2022-07-06T15:34:33;23.60;49.10
26049;DHT22;13822;51.568;5.086;2022-07-06T15:39:35;23.40;51.50
26049;DHT22;13822;51.568;5.086;2022-07-06T15:44:37;23.30;53.80
26049;DHT22;13822;51.568;5.086;2022-07-06T15:49:39;23.10;56.30
26049;DHT22;13822;51.568;5.086;2022-07-06T15:54:41;23.10;60.60
26049;DHT22;13822;51.568;5.086;2022-07-06T15:59:44;23.30;60.80
26049;DHT22;13822;51.568;5.086;2022-07-06T16:04:46;23.30;61.60
26049;DHT22;13822;51.568;5.086;2022-07-06T16:09:48;23.30;62.00
26049;DHT22;13822;51.568;5.086;2022-07-06T16:14:50;23.10;62.60
26049;DHT22;13822;51.568;5.086;2022-07-06T16:19:51;23.00;67.30
26049;DHT22;13822;51.568;5.086;2022-07-06T16:24:55;23.00;72.40
26049;DHT22;13822;51.568;5.086;2022-07-06T16:30:04;23.00;74.30
26049;DHT22;13822;51.568;5.086;2022-07-06T16:35:07;23.00;72.50
26049;DHT22;13822;51.568;5.086;2022-07-06T16:40:09;23.10;72.20
26049;DHT22;13822;51.568;5.086;2022-07-06T16:45:12;23.10;74.30
26049;DHT22;13822;51.568;5.086;2022-07-06T16:50:13;23.10;78.60
26049;DHT22;13822;51.568;5.086;2022-07-06T16:55:15;23.10;75.30
26049;DHT22;13822;51.568;5.086;2022-07-06T17:00:18;23.10;72.00
26049;DHT22;13822;51.568;5.086;2022-07-06T17:05:20;23.10;70.70
26049;DHT22;13822;51.568;5.086;2022-07-06T17:10:22;23.00;72.90
26049;DHT22;13822;51.568;5.086;2022-07-06T17:15:24;23.00;73.70
26049;DHT22;13822;51.568;5.086;2022-07-06T17:20:26;22.80;73.60
26049;DHT22;13822;51.568;5.086;2022-07-06T17:25:28;22.70;78.70
26049;DHT22;13822;51.568;5.086;2022-07-06T17:30:31;22.60;80.10
26049;DHT22;13822;51.568;5.086;2022-07-06T17:35:35;22.50;77.50
26049;DHT22;13822;51.568;5.086;2022-07-06T17:40:37;22.40;78.80
26049;DHT22;13822;51.568;5.086;2022-07-06T17:45:39;22.30;76.50
26049;DHT22;13822;51.568;5.086;2022-07-06T17:50:41;22.20;80.20
26049;DHT22;13822;51.568;5.086;2022-07-06T17:55:43;22.20;73.10
26049;DHT22;13822;51.568;5.086;2022-07-06T18:00:47;22.20;73.80
26049;DHT22;13822;51.568;5.086;2022-07-06T18:05:54;22.10;75.20
26049;DHT22;13822;51.568;5.086;2022-07-06T18:10:56;22.10;69.00
26049;DHT22;13822;51.568;5.086;2022-07-06T18:16:04;22.10;64.50
26049;DHT22;13822;51.568;5.086;2022-07-06T18:21:08;22.00;63.20
26049;DHT22;13822;51.568;5.086;2022-07-06T18:26:11;22.00;64.00
26049;DHT22;13822;51.568;5.086;2022-07-06T18:31:13;21.90;72.60
26049;DHT22;13822;51.568;5.086;2022-07-06T18:36:15;21.80;82.10
26049;DHT22;13822;51.568;5.086;2022-07-06T18:41:17;21.80;87.80
26049;DHT22;13822;51.568;5.086;2022-07-06T18:46:19;21.70;90.90
26049;DHT22;13822;51.568;5.086;2022-07-06T18:51:21;21.60;93.30
26049;DHT22;13822;51.568;5.086;2022-07-06T18:56:23;21.50;95.80
26049;DHT22;13822;51.568;5.086;2022-07-06T19:01:25;21.50;99.90
26049;DHT22;13822;51.568;5.086;2022-07-06T19:06:27;21.40;99.90
26049;DHT22;13822;51.568;5.086;2022-07-06T19:11:29;21.40;99.90
26049;DHT22;13822;51.568;5.086;2022-07-06T19:16:31;21.40;99.90
26049;DHT22;13822;51.568;5.086;2022-07-06T19:21:33;21.30;99.90
26049;DHT22;13822;51.568;5.086;2022-07-06T19:26:35;21.20;99.90
26049;DHT22;13822;51.568;5.086;2022-07-06T19:31:38;21.10;99.90
26049;DHT22;13822;51.568;5.086;2022-07-06T19:36:41;21.10;99.90
26049;DHT22;13822;51.568;5.086;2022-07-06T19:41:47;21.10;99.90
26049;DHT22;13822;51.568;5.086;2022-07-06T19:46:49;21.00;99.90
26049;DHT22;13822;51.568;5.086;2022-07-06T19:51:51;20.90;99.90
26049;DHT22;13822;51.568;5.086;2022-07-06T19:56:53;20.80;99.90
26049;DHT22;13822;51.568;5.086;2022-07-06T20:01:55;20.80;99.90
26049;DHT22;13822;51.568;5.086;2022-07-06T20:06:57;20.70;99.90
26049;DHT22;13822;51.568;5.086;2022-07-06T20:12:01;20.50;99.90
26049;DHT22;13822;51.568;5.086;2022-07-06T20:17:03;20.50;99.90
26049;DHT22;13822;51.568;5.086;2022-07-06T20:22:05;20.50;99.90
26049;DHT22;13822;51.568;5.086;2022-07-06T20:27:08;20.40;99.90
26049;DHT22;13822;51.568;5.086;2022-07-06T20:32:10;20.40;99.90
26049;DHT22;13822;51.568;5.086;2022-07-06T20:37:12;20.30;99.90
26049;DHT22;13822;51.568;5.086;2022-07-06T20:42:14;20.20;99.90
26049;DHT22;13822;51.568;5.086;2022-07-06T20:47:16;20.10;99.90
26049;DHT22;13822;51.568;5.086;2022-07-06T20:52:19;20.00;99.90
26049;DHT22;13822;51.568;5.086;2022-07-06T20:57:21;19.90;99.90
